Time;durP1;ratioP1;P1;durP2;ratioP2;P2;SDS_P1;SDS_P2;PMS_P1;PMS_P2;Temp;Humidity;BMP_temperature;BMP_pressure;BME280_temperature;BME280_humidity;BME280_pressure;Samples;Min_cycle;Max_cycle;Signal;HPM_P1;HPM_P2
2024/03/02 00:00:13;;;;;;;2.90;2.20;;;;;;;;;;5065270;28;20219;-72
2024/03/02 00:02:45;;;;;;;4.65;2.33;;;;;;;;;;5021611;28;20189;-73
2024/03/02 00:05:18;;;;;;;3.72;2.15;;;;;;;;;;5065726;28;20192;-72
2024/03/02 00:07:46;;;;;;;3.88;2.30;;;;;;;;;;5061500;28;20216;-72
2024/03/02 00:10:16;;;;;;;4.65;2.13;;;;;;;;;;5060491;28;20200;-72
2024/03/02 00:12:42;;;;;;;3.03;1.88;;;;;;;;;;5058825;28;20239;-72
2024/03/02 00:15:45;;;;;;;3.90;1.98;;;;;;;;;;5065464;28;20636;-71
2024/03/02 00:18:14;;;;;;;4.43;1.80;;;;;;;;;;5067702;28;20208;-71
2024/03/02 00:20:40;;;;;;;4.05;2.67;;;;;;;;;;5053537;28;20645;-71
2024/03/02 00:23:07;;;;;;;3.80;1.95;;;;;;;;;;5055873;28;20193;-72
2024/03/02 00:25:44;;;;;;;2.53;2.03;;;;;;;;;;5051069;28;20235;-72
2024/03/02 00:28:23;;;;;;;4.90;2.10;;;;;;;;;;5055157;28;20188;-72
2024/03/02 00:30:58;;;;;;;3.60;1.88;;;;;;;;;;5062771;28;20184;-72
2024/03/02 00:33:27;;;;;;;3.00;1.90;;;;;;;;;;5066838;28;20753;-72
2024/03/02 00:35:53;;;;;;;3.25;1.92;;;;;;;;;;5063111;28;20228;-72
2024/03/02 00:38:19;;;;;;;7.43;2.00;;;;;;;;;;5059477;28;20726;-71
2024/03/02 00:40:45;;;;;;;5.05;1.90;;;;;;;;;;5066986;28;20247;-71
2024/03/02 00:43:32;;;;;;;2.88;1.70;;;;;;;;;;5065239;28;20296;-71
2024/03/02 00:45:58;;;;;;;2.53;1.80;;;;;;;;;;5053077;28;20191;-72
2024/03/02 00:48:23;;;;;;;2.88;2.03;;;;;;;;;;5062500;28;20181;-72
2024/03/02 00:50:52;;;;;;;2.35;1.60;;;;;;;;;;5050477;28;20200;-72
2024/03/02 00:53:26;;;;;;;3.63;1.80;;;;;;;;;;5061454;28;20196;-73
2024/03/02 00:55:53;;;;;;;3.25;1.85;;;;;;;;;;5065897;28;20188;-73
2024/03/02 00:58:18;;;;;;;2.60;1.70;;;;;;;;;;5035045;28;20270;-72
2024/03/02 01:00:44;;;;;;;3.20;1.80;;;;;;;;;;5046646;28;20276;-72
2024/03/02 01:03:10;;;;;;;3.47;2.05;;;;;;;;;;5061136;28;20184;-73
2024/03/02 01:05:36;;;;;;;4.57;2.00;;;;;;;;;;5057158;28;20206;-72
2024/03/02 01:08:02;;;;;;;2.83;1.73;;;;;;;;;;5043086;28;20641;-72
2024/03/02 01:10:28;;;;;;;3.33;1.80;;;;;;;;;;5051940;28;20299;-73
2024/03/02 01:12:53;;;;;;;2.53;1.70;;;;;;;;;;5038050;28;20378;-72
2024/03/02 01:15:19;;;;;;;2.35;1.85;;;;;;;;;;5043973;28;20230;-72
2024/03/02 01:17:44;;;;;;;4.82;1.95;;;;;;;;;;5061291;28;20278;-72
2024/03/02 01:20:10;;;;;;;3.95;1.83;;;;;;;;;;5050773;28;20208;-72
2024/03/02 01:22:37;;;;;;;4.85;1.60;;;;;;;;;;5066432;28;20204;-72
2024/03/02 01:25:03;;;;;;;4.90;1.98;;;;;;;;;;5063176;28;20189;-73
2024/03/02 01:27:28;;;;;;;4.30;1.92;;;;;;;;;;5053271;28;20200;-73
2024/03/02 01:29:54;;;;;;;3.47;1.88;;;;;;;;;;5062530;28;20193;-73
2024/03/02 01:32:20;;;;;;;2.85;1.85;;;;;;;;;;5046677;28;20222;-73
2024/03/02 01:34:45;;;;;;;2.83;1.92;;;;;;;;;;5064335;28;20224;-73
2024/03/02 01:37:11;;;;;;;3.50;2.17;;;;;;;;;;5065758;28;20292;-72
2024/03/02 01:39:36;;;;;;;4.40;1.60;;;;;;;;;;5063133;28;20204;-73
2024/03/02 01:42:02;;;;;;;3.70;2.33;;;;;;;;;;5062332;28;20596;-72
2024/03/02 01:44:28;;;;;;;2.40;2.00;;;;;;;;;;5060023;28;20183;-72
2024/03/02 01:46:53;;;;;;;2.50;2.25;;;;;;;;;;5060673;28;20559;-73
2024/03/02 01:49:19;;;;;;;3.55;2.03;;;;;;;;;;5056141;28;20264;-72
2024/03/02 01:51:44;;;;;;;2.97;2.17;;;;;;;;;;5049321;28;20604;-72
2024/03/02 01:54:10;;;;;;;3.17;1.92;;;;;;;;;;5055789;28;20197;-73
2024/03/02 01:56:35;;;;;;;3.00;1.90;;;;;;;;;;5035082;28;20186;-72
2024/03/02 01:59:01;;;;;;;3.70;1.90;;;;;;;;;;5050269;28;20207;-72
2024/03/02 02:01:27;;;;;;;2.58;1.85;;;;;;;;;;5064289;28;20189;-72
2024/03/02 02:03:52;;;;;;;2.45;1.73;;;;;;;;;;5065394;28;20185;-72
2024/03/02 02:06:18;;;;;;;2.10;1.83;;;;;;;;;;5065229;28;20485;-73
2024/03/02 02:08:43;;;;;;;3.65;2.00;;;;;;;;;;5056951;28;20228;-73
2024/03/02 02:11:09;;;;;;;2.35;1.80;;;;;;;;;;5067598;28;20193;-72
2024/03/02 02:13:35;;;;;;;4.45;2.22;;;;;;;;;;5063808;28;20200;-72
2024/03/02 02:16:07;;;;;;;3.58;1.80;;;;;;;;;;5036447;28;20787;-73
2024/03/02 02:18:33;;;;;;;4.00;2.08;;;;;;;;;;5047639;28;20238;-72
2024/03/02 02:20:59;;;;;;;3.55;1.70;;;;;;;;;;5056810;28;20189;-72
2024/03/02 02:23:25;;;;;;;3.58;1.75;;;;;;;;;;5060794;28;20618;-72
2024/03/02 02:25:50;;;;;;;7.53;1.80;;;;;;;;;;5064175;28;20192;-72
2024/03/02 02:28:15;;;;;;;2.63;1.77;;;;;;;;;;5062850;28;20189;-72
2024/03/02 02:30:41;;;;;;;3.58;1.90;;;;;;;;;;5056460;28;20182;-72
2024/03/02 02:33:06;;;;;;;2.65;1.77;;;;;;;;;;5064552;28;20185;-72
2024/03/02 02:35:32;;;;;;;4.93;1.83;;;;;;;;;;5065367;28;20228;-72
2024/03/02 02:38:01;;;;;;;4.40;2.20;;;;;;;;;;5055608;28;20302;-72
2024/03/02 02:40:27;;;;;;;3.20;1.80;;;;;;;;;;5066333;28;20308;-72
2024/03/02 02:42:52;;;;;;;5.95;1.95;;;;;;;;;;5050790;28;20211;-72
2024/03/02 02:45:18;;;;;;;3.53;1.80;;;;;;;;;;5058449;28;20550;-72
2024/03/02 02:47:44;;;;;;;2.22;1.83;;;;;;;;;;5048449;28;20181;-72
2024/03/02 02:50:11;;;;;;;4.00;1.98;;;;;;;;;;5059625;28;20193;-72
2024/03/02 02:52:39;;;;;;;7.00;2.15;;;;;;;;;;5060981;28;20181;-72
2024/03/02 02:55:06;;;;;;;3.28;1.70;;;;;;;;;;5060936;28;20327;-72
2024/03/02 02:57:35;;;;;;;3.30;1.77;;;;;;;;;;5067043;28;20227;-72
2024/03/02 03:00:14;;;;;;;4.40;2.00;;;;;;;;;;5059139;28;20231;-72
2024/03/02 03:02:44;;;;;;;3.90;2.10;;;;;;;;;;5064604;28;20197;-72
2024/03/02 03:05:11;;;;;;;2.03;1.77;;;;;;;;;;5064622;28;20192;-72
2024/03/02 03:07:39;;;;;;;2.78;1.67;;;;;;;;;;5062001;28;20189;-72
2024/03/02 03:10:06;;;;;;;2.20;1.52;;;;;;;;;;5057184;28;20194;-72
2024/03/02 03:12:32;;;;;;;4.00;2.10;;;;;;;;;;5060088;28;20268;-71
2024/03/02 03:14:58;;;;;;;2.83;1.77;;;;;;;;;;5062449;28;20181;-72
2024/03/02 03:17:23;;;;;;;3.65;1.88;;;;;;;;;;5068815;28;20211;-72
2024/03/02 03:19:50;;;;;;;3.53;1.90;;;;;;;;;;5061986;28;20209;-72
2024/03/02 03:22:15;;;;;;;2.17;1.73;;;;;;;;;;5067650;28;20188;-72
2024/03/02 03:24:41;;;;;;;2.60;1.70;;;;;;;;;;5064148;28;20562;-72
2024/03/02 03:27:06;;;;;;;3.72;1.92;;;;;;;;;;5049177;28;20268;-72
2024/03/02 03:29:32;;;;;;;3.05;1.88;;;;;;;;;;5059790;28;20196;-72
2024/03/02 03:31:57;;;;;;;3.00;1.88;;;;;;;;;;5049781;28;20177;-72
2024/03/02 03:34:23;;;;;;;2.90;2.00;;;;;;;;;;5066618;28;20635;-72
2024/03/02 03:36:48;;;;;;;3.50;2.10;;;;;;;;;;5058144;28;20190;-72
2024/03/02 03:39:14;;;;;;;3.40;2.00;;;;;;;;;;5059354;28;20192;-72
2024/03/02 03:41:40;;;;;;;3.35;2.13;;;;;;;;;;5059690;28;20193;-72
2024/03/02 03:44:06;;;;;;;4.10;1.98;;;;;;;;;;5061891;28;20698;-72
2024/03/02 03:46:31;;;;;;;3.15;1.95;;;;;;;;;;5066557;28;20223;-72
2024/03/02 03:48:57;;;;;;;2.88;1.90;;;;;;;;;;5059911;28;20283;-72
2024/03/02 03:51:25;;;;;;;6.43;2.47;;;;;;;;;;5061987;28;20267;-73
2024/03/02 03:53:50;;;;;;;3.33;2.20;;;;;;;;;;5036217;28;21463;-72
2024/03/02 03:56:16;;;;;;;2.47;1.88;;;;;;;;;;5031350;28;20268;-73
2024/03/02 03:58:41;;;;;;;4.43;2.05;;;;;;;;;;5053967;28;20299;-73
2024/03/02 04:01:07;;;;;;;6.13;2.17;;;;;;;;;;5056871;28;20177;-73
2024/03/02 04:03:33;;;;;;;2.33;1.48;;;;;;;;;;5055702;28;20287;-73
2024/03/02 04:05:58;;;;;;;4.13;1.65;;;;;;;;;;5056693;28;20299;-72
2024/03/02 04:08:23;;;;;;;4.22;1.67;;;;;;;;;;5061062;28;20227;-72
2024/03/02 04:10:49;;;;;;;4.78;1.90;;;;;;;;;;5062452;28;20656;-73
2024/03/02 04:13:14;;;;;;;3.97;1.73;;;;;;;;;;5058684;28;20713;-73
2024/03/02 04:15:43;;;;;;;4.78;2.00;;;;;;;;;;5063441;28;20195;-72
2024/03/02 04:18:08;;;;;;;4.60;1.98;;;;;;;;;;5060790;28;20209;-72
2024/03/02 04:20:33;;;;;;;3.55;1.83;;;;;;;;;;5062585;28;20276;-73
2024/03/02 04:22:59;;;;;;;4.43;1.75;;;;;;;;;;5043907;28;20656;-72
2024/03/02 04:25:24;;;;;;;2.75;1.60;;;;;;;;;;5081260;28;20188;-73
2024/03/02 04:27:50;;;;;;;4.03;1.77;;;;;;;;;;5059701;28;20196;-73
2024/03/02 04:30:15;;;;;;;3.42;1.67;;;;;;;;;;5065349;28;20259;-73
2024/03/02 04:32:41;;;;;;;3.28;1.45;;;;;;;;;;5047265;28;20189;-73
2024/03/02 04:35:10;;;;;;;2.25;1.33;;;;;;;;;;5053276;28;20327;-73
2024/03/02 04:37:35;;;;;;;1.77;1.00;;;;;;;;;;5055704;28;20235;-73
2024/03/02 04:40:01;;;;;;;2.22;1.25;;;;;;;;;;5060011;28;20552;-72
2024/03/02 04:42:26;;;;;;;2.45;1.00;;;;;;;;;;5048391;28;20216;-72
2024/03/02 04:44:52;;;;;;;1.73;0.90;;;;;;;;;;5052463;28;20191;-73
2024/03/02 04:47:17;;;;;;;1.88;0.82;;;;;;;;;;5064083;28;20624;-73
2024/03/02 04:49:43;;;;;;;6.32;1.05;;;;;;;;;;5038445;28;20190;-73
2024/03/02 04:52:09;;;;;;;2.00;0.80;;;;;;;;;;5061833;28;20252;-73
2024/03/02 04:55:09;;;;;;;2.25;0.80;;;;;;;;;;5057034;28;20700;-72
2024/03/02 04:57:19;;;;;;;3.53;0.70;;;;;;;;;;5051844;28;20237;-72
2024/03/02 04:59:45;;;;;;;2.05;0.95;;;;;;;;;;5061284;28;20216;-73
2024/03/02 05:02:13;;;;;;;1.85;0.77;;;;;;;;;;5039937;28;20561;-73
2024/03/02 05:04:39;;;;;;;4.20;0.85;;;;;;;;;;5057574;28;20330;-73
2024/03/02 05:07:05;;;;;;;1.70;0.73;;;;;;;;;;5046098;28;20545;-73
2024/03/02 05:09:31;;;;;;;1.90;0.60;;;;;;;;;;5045808;28;20188;-73
2024/03/02 05:14:41;;;;;;;1.08;0.52;;;;;;;;;;5080503;28;20206;-72
2024/03/02 05:17:07;;;;;;;0.80;0.60;;;;;;;;;;5039106;28;20211;-73
2024/03/02 05:19:32;;;;;;;1.15;0.60;;;;;;;;;;5044898;28;20205;-72
2024/03/02 05:21:58;;;;;;;1.35;0.55;;;;;;;;;;5063214;28;20200;-71
2024/03/02 05:24:23;;;;;;;0.55;0.43;;;;;;;;;;5066125;28;20255;-72
2024/03/02 05:26:49;;;;;;;3.25;0.80;;;;;;;;;;5057139;28;20201;-71
2024/03/02 05:29:14;;;;;;;3.42;0.80;;;;;;;;;;5058067;28;20197;-73
2024/03/02 05:31:40;;;;;;;2.20;0.70;;;;;;;;;;5057078;28;20196;-72
2024/03/02 05:34:06;;;;;;;1.88;0.63;;;;;;;;;;5054921;28;20244;-72
2024/03/02 05:36:31;;;;;;;2.33;0.80;;;;;;;;;;5055806;28;20193;-71
2024/03/02 05:38:57;;;;;;;2.05;0.57;;;;;;;;;;5065095;28;20322;-71
2024/03/02 05:41:22;;;;;;;1.75;0.70;;;;;;;;;;5071449;28;20566;-72
2024/03/02 05:43:49;;;;;;;2.63;0.45;;;;;;;;;;5059501;28;20307;-72
2024/03/02 05:46:15;;;;;;;1.08;0.50;;;;;;;;;;5068536;28;20200;-71
2024/03/02 05:48:40;;;;;;;2.75;0.60;;;;;;;;;;5058947;28;20192;-72
2024/03/02 05:51:06;;;;;;;1.83;0.30;;;;;;;;;;5047142;28;20185;-72
2024/03/02 05:53:31;;;;;;;0.82;0.57;;;;;;;;;;5045355;28;20201;-71
2024/03/02 05:55:56;;;;;;;0.85;0.50;;;;;;;;;;5040734;28;20660;-71
2024/03/02 06:01:28;;;;;;;2.15;0.50;;;;;;;;;;5048741;28;20567;-71
2024/03/02 06:03:55;;;;;;;1.23;0.55;;;;;;;;;;5033615;28;20217;-71
2024/03/02 06:06:20;;;;;;;2.72;0.47;;;;;;;;;;5038376;28;20188;-72
2024/03/02 06:08:46;;;;;;;0.93;0.40;;;;;;;;;;5057679;28;20181;-71
2024/03/02 06:11:11;;;;;;;0.90;0.50;;;;;;;;;;5065269;28;20189;-71
2024/03/02 06:13:37;;;;;;;0.93;0.38;;;;;;;;;;5048877;28;20182;-71
2024/03/02 06:16:03;;;;;;;2.85;0.30;;;;;;;;;;5066187;28;20177;-71
2024/03/02 06:18:28;;;;;;;0.77;0.30;;;;;;;;;;5066239;28;20589;-72
2024/03/02 06:20:54;;;;;;;0.60;0.25;;;;;;;;;;5062923;28;20643;-71
2024/03/02 06:23:19;;;;;;;0.77;0.40;;;;;;;;;;5061051;28;20707;-72
2024/03/02 06:25:45;;;;;;;1.30;0.52;;;;;;;;;;5062067;28;20593;-72
2024/03/02 06:28:10;;;;;;;1.30;0.43;;;;;;;;;;5073774;28;20188;-71
2024/03/02 06:30:36;;;;;;;0.95;0.50;;;;;;;;;;5057753;28;20258;-72
2024/03/02 06:33:03;;;;;;;0.55;0.50;;;;;;;;;;5066452;28;20203;-72
2024/03/02 06:35:29;;;;;;;3.05;0.50;;;;;;;;;;5068144;28;20259;-72
2024/03/02 06:37:54;;;;;;;1.65;0.45;;;;;;;;;;5059066;28;20706;-71
2024/03/02 06:40:21;;;;;;;3.08;0.52;;;;;;;;;;5071283;28;20517;-72
2024/03/02 06:42:46;;;;;;;1.10;0.65;;;;;;;;;;5056329;28;20196;-72
2024/03/02 06:45:11;;;;;;;0.88;0.65;;;;;;;;;;5055523;28;20189;-73
2024/03/02 06:47:37;;;;;;;2.17;0.80;;;;;;;;;;5067562;28;20200;-72
2024/03/02 06:50:02;;;;;;;1.70;0.57;;;;;;;;;;5056190;28;20699;-72
2024/03/02 06:52:28;;;;;;;2.80;0.50;;;;;;;;;;5061018;28;20246;-73
2024/03/02 06:54:54;;;;;;;1.67;0.50;;;;;;;;;;5064409;28;20664;-72
2024/03/02 06:57:20;;;;;;;0.97;0.50;;;;;;;;;;5054665;28;20205;-72
2024/03/02 06:59:46;;;;;;;3.50;0.50;;;;;;;;;;5057692;28;20185;-72
2024/03/02 07:02:12;;;;;;;1.98;0.50;;;;;;;;;;5061273;28;20574;-72
2024/03/02 07:04:38;;;;;;;1.88;0.50;;;;;;;;;;5068551;28;20185;-72
2024/03/02 07:07:03;;;;;;;2.22;0.60;;;;;;;;;;5065417;28;20266;-72
2024/03/02 07:09:29;;;;;;;1.00;0.40;;;;;;;;;;5068538;28;20193;-72
2024/03/02 07:11:54;;;;;;;1.45;0.52;;;;;;;;;;5070787;28;20195;-72
2024/03/02 07:14:20;;;;;;;2.03;0.43;;;;;;;;;;5071764;28;20193;-73
2024/03/02 07:16:45;;;;;;;0.82;0.43;;;;;;;;;;5068303;28;20234;-72
2024/03/02 07:19:10;;;;;;;1.92;0.73;;;;;;;;;;5073265;28;20216;-72
2024/03/02 07:21:36;;;;;;;2.08;1.13;;;;;;;;;;5079520;28;20183;-72
2024/03/02 07:24:05;;;;;;;2.17;1.00;;;;;;;;;;5073718;28;20505;-72
2024/03/02 07:26:31;;;;;;;1.60;1.00;;;;;;;;;;5038132;28;20233;-72
2024/03/02 07:28:57;;;;;;;3.45;1.40;;;;;;;;;;5075170;28;20854;-72
2024/03/02 07:31:22;;;;;;;1.73;0.90;;;;;;;;;;5067988;28;20543;-72
2024/03/02 07:33:48;;;;;;;2.25;1.05;;;;;;;;;;5068177;28;20196;-72
2024/03/02 07:36:13;;;;;;;1.83;0.90;;;;;;;;;;5068625;28;20181;-72
2024/03/02 07:38:40;;;;;;;1.73;0.73;;;;;;;;;;5049338;28;20202;-72
2024/03/02 07:41:06;;;;;;;3.00;0.60;;;;;;;;;;5061988;28;20282;-73
2024/03/02 07:43:33;;;;;;;1.70;0.70;;;;;;;;;;5065316;28;20272;-72
2024/03/02 07:45:58;;;;;;;1.30;0.63;;;;;;;;;;5067185;28;20213;-72
2024/03/02 07:48:25;;;;;;;3.65;0.82;;;;;;;;;;5064702;28;20828;-72
2024/03/02 07:50:50;;;;;;;1.33;0.60;;;;;;;;;;5067122;28;20225;-72
2024/03/02 07:53:16;;;;;;;1.63;0.60;;;;;;;;;;5065764;28;20224;-72
2024/03/02 07:55:41;;;;;;;2.67;0.70;;;;;;;;;;5057556;28;20654;-72
2024/03/02 07:58:07;;;;;;;2.03;0.50;;;;;;;;;;5063155;28;20760;-72
2024/03/02 08:00:32;;;;;;;1.33;0.80;;;;;;;;;;5066636;28;20188;-72
2024/03/02 08:02:58;;;;;;;0.70;0.60;;;;;;;;;;5063526;28;20276;-72
2024/03/02 08:05:24;;;;;;;0.90;0.63;;;;;;;;;;5059809;28;20280;-70
2024/03/02 08:07:52;;;;;;;1.58;0.80;;;;;;;;;;5065565;28;20641;-71
2024/03/02 08:10:19;;;;;;;2.33;0.80;;;;;;;;;;5068862;28;20199;-72
2024/03/02 08:12:44;;;;;;;1.98;0.70;;;;;;;;;;5065169;28;20243;-72
2024/03/02 08:15:10;;;;;;;1.58;0.80;;;;;;;;;;5064109;28;20547;-73
2024/03/02 08:17:36;;;;;;;2.08;0.80;;;;;;;;;;5062363;28;20205;-73
2024/03/02 08:20:02;;;;;;;1.38;0.70;;;;;;;;;;5067593;28;20278;-73
2024/03/02 08:22:28;;;;;;;2.17;0.80;;;;;;;;;;5066520;28;20664;-73
2024/03/02 08:24:54;;;;;;;6.00;1.50;;;;;;;;;;5067629;28;20196;-73
2024/03/02 08:27:20;;;;;;;1.98;1.25;;;;;;;;;;5058956;28;20196;-73
2024/03/02 08:29:45;;;;;;;4.18;1.40;;;;;;;;;;5045551;28;20197;-72
2024/03/02 08:32:11;;;;;;;1.38;1.20;;;;;;;;;;5051482;28;20268;-72
2024/03/02 08:34:36;;;;;;;3.05;1.23;;;;;;;;;;5062206;28;20465;-72
2024/03/02 08:37:02;;;;;;;3.25;1.88;;;;;;;;;;5058849;28;20276;-73
2024/03/02 08:39:28;;;;;;;4.10;1.80;;;;;;;;;;5057521;28;20554;-73
2024/03/02 08:41:54;;;;;;;2.53;1.70;;;;;;;;;;5063161;28;20185;-72
2024/03/02 08:44:20;;;;;;;5.82;1.70;;;;;;;;;;5066505;28;20193;-72
2024/03/02 08:46:46;;;;;;;2.97;2.00;;;;;;;;;;5060188;28;20234;-73
2024/03/02 08:49:12;;;;;;;4.32;1.90;;;;;;;;;;5055304;28;20185;-73
2024/03/02 08:51:37;;;;;;;3.47;1.63;;;;;;;;;;5066011;28;20184;-73
2024/03/02 08:54:03;;;;;;;5.32;1.48;;;;;;;;;;5051846;28;21131;-73
2024/03/02 08:56:30;;;;;;;2.70;1.75;;;;;;;;;;5065158;28;20184;-72
2024/03/02 08:58:55;;;;;;;2.70;1.60;;;;;;;;;;5066066;28;20201;-72
2024/03/02 09:01:21;;;;;;;2.30;1.60;;;;;;;;;;5059012;28;20220;-72
2024/03/02 09:03:46;;;;;;;4.88;1.50;;;;;;;;;;5074792;28;20214;-73
2024/03/02 09:06:13;;;;;;;2.80;1.23;;;;;;;;;;5073984;28;20314;-73
2024/03/02 09:08:39;;;;;;;1.90;1.25;;;;;;;;;;5074636;28;20204;-72
2024/03/02 09:11:06;;;;;;;5.88;1.45;;;;;;;;;;5047722;28;20185;-71
2024/03/02 09:13:32;;;;;;;3.00;1.38;;;;;;;;;;5054485;28;20523;-72
2024/03/02 09:15:58;;;;;;;2.42;1.00;;;;;;;;;;5068707;28;20781;-72
2024/03/02 09:18:23;;;;;;;3.00;0.90;;;;;;;;;;5069823;28;20212;-72
2024/03/02 09:20:49;;;;;;;4.07;1.38;;;;;;;;;;5067357;28;20692;-72
2024/03/02 09:23:14;;;;;;;4.15;1.08;;;;;;;;;;5063532;28;20266;-72
2024/03/02 09:25:40;;;;;;;2.58;1.10;;;;;;;;;;5064588;28;20192;-72
2024/03/02 09:28:06;;;;;;;4.22;1.10;;;;;;;;;;5065479;28;20181;-71
2024/03/02 09:30:32;;;;;;;5.72;1.45;;;;;;;;;;5065527;28;20189;-72
2024/03/02 09:32:57;;;;;;;3.40;1.08;;;;;;;;;;5067080;28;20212;-71
2024/03/02 09:35:24;;;;;;;36.40;3.67;;;;;;;;;;5071671;28;20233;-71
2024/03/02 09:37:49;;;;;;;12.88;1.83;;;;;;;;;;5058610;28;20217;-72
2024/03/02 09:40:16;;;;;;;2.78;1.30;;;;;;;;;;5071341;28;20211;-72
2024/03/02 09:42:42;;;;;;;3.42;1.30;;;;;;;;;;5068168;28;20655;-72
2024/03/02 09:45:09;;;;;;;5.47;0.90;;;;;;;;;;5070349;28;20604;-72
2024/03/02 09:47:34;;;;;;;1.27;1.08;;;;;;;;;;5075949;28;20189;-71
2024/03/02 09:50:00;;;;;;;3.55;1.38;;;;;;;;;;5060707;28;20189;-73
2024/03/02 09:52:26;;;;;;;2.35;1.15;;;;;;;;;;5048242;28;20176;-72
2024/03/02 09:54:51;;;;;;;5.18;1.20;;;;;;;;;;5070370;28;20586;-73
2024/03/02 09:57:17;;;;;;;2.95;1.20;;;;;;;;;;5072044;28;20200;-72
2024/03/02 09:59:42;;;;;;;2.72;0.95;;;;;;;;;;5045855;28;20614;-72
2024/03/02 10:02:08;;;;;;;1.55;1.05;;;;;;;;;;5063539;28;20193;-73
2024/03/02 10:04:35;;;;;;;1.88;1.40;;;;;;;;;;5059037;28;20264;-72
2024/03/02 10:07:17;;;;;;;1.95;1.17;;;;;;;;;;5068009;28;20193;-72
2024/03/02 10:09:47;;;;;;;2.33;1.52;;;;;;;;;;5060084;28;20320;-72
2024/03/02 10:12:15;;;;;;;4.40;1.48;;;;;;;;;;5068841;28;20254;-72
2024/03/02 10:14:41;;;;;;;2.42;1.33;;;;;;;;;;5064966;28;20184;-72
2024/03/02 10:17:15;;;;;;;3.28;2.00;;;;;;;;;;5063984;28;20192;-72
2024/03/02 10:19:41;;;;;;;3.97;1.92;;;;;;;;;;5062564;28;20215;-72
2024/03/02 10:22:08;;;;;;;3.40;1.60;;;;;;;;;;5068007;28;20201;-71
2024/03/02 10:24:41;;;;;;;3.38;1.95;;;;;;;;;;5068576;28;20282;-71
2024/03/02 10:27:08;;;;;;;3.38;2.13;;;;;;;;;;5060254;28;20228;-72
2024/03/02 10:29:40;;;;;;;2.78;1.70;;;;;;;;;;5063628;28;20197;-72
2024/03/02 10:32:08;;;;;;;2.42;1.38;;;;;;;;;;5068444;28;20193;-72
2024/03/02 10:34:33;;;;;;;6.07;1.33;;;;;;;;;;5067639;28;20307;-72
2024/03/02 10:36:59;;;;;;;2.17;1.40;;;;;;;;;;5068279;28;20763;-72
2024/03/02 10:39:25;;;;;;;4.32;1.20;;;;;;;;;;5068761;28;20196;-72
2024/03/02 10:41:52;;;;;;;3.25;1.13;;;;;;;;;;5062593;28;20194;-72
2024/03/02 10:44:18;;;;;;;3.22;1.35;;;;;;;;;;5063312;28;20597;-72
2024/03/02 10:46:45;;;;;;;2.95;1.15;;;;;;;;;;5067704;28;20196;-72
2024/03/02 10:49:11;;;;;;;2.92;1.55;;;;;;;;;;5055994;28;20594;-72
2024/03/02 10:51:37;;;;;;;2.50;0.95;;;;;;;;;;5065401;28;20188;-72
2024/03/02 10:54:03;;;;;;;2.75;0.90;;;;;;;;;;5067645;28;20216;-72
2024/03/02 10:56:32;;;;;;;3.33;1.10;;;;;;;;;;5066827;28;20220;-72
2024/03/02 10:59:26;;;;;;;2.75;0.90;;;;;;;;;;5080000;28;20232;-71
2024/03/02 11:01:56;;;;;;;4.55;0.98;;;;;;;;;;5066557;28;20271;-72
2024/03/02 11:04:24;;;;;;;4.82;0.80;;;;;;;;;;5068448;28;20280;-72
2024/03/02 11:06:51;;;;;;;3.75;0.93;;;;;;;;;;5065928;28;20188;-72
2024/03/02 11:09:21;;;;;;;2.42;0.60;;;;;;;;;;5059942;28;20200;-72
2024/03/02 11:11:55;;;;;;;2.28;0.63;;;;;;;;;;5062606;28;20195;-71
2024/03/02 11:14:24;;;;;;;2.50;0.80;;;;;;;;;;5061403;28;20660;-73
2024/03/02 11:16:51;;;;;;;2.90;1.17;;;;;;;;;;5061722;28;20279;-72
2024/03/02 11:19:17;;;;;;;2.95;1.27;;;;;;;;;;5060464;28;20692;-72
2024/03/02 11:21:43;;;;;;;2.03;1.08;;;;;;;;;;5066511;28;20203;-72
2024/03/02 11:24:23;;;;;;;5.20;1.48;;;;;;;;;;5068106;28;20262;-72
2024/03/02 11:26:53;;;;;;;2.35;1.10;;;;;;;;;;5064078;28;20276;-71
2024/03/02 11:29:36;;;;;;;3.17;1.20;;;;;;;;;;5064551;28;20188;-72
2024/03/02 11:32:06;;;;;;;3.55;1.50;;;;;;;;;;5058469;28;20228;-72
2024/03/02 11:34:35;;;;;;;3.58;1.33;;;;;;;;;;5063551;28;20267;-71
2024/03/02 11:37:02;;;;;;;2.22;1.40;;;;;;;;;;5065929;28;20556;-71
2024/03/02 11:39:28;;;;;;;4.57;1.17;;;;;;;;;;5064120;28;20174;-71
2024/03/02 11:41:55;;;;;;;7.30;1.38;;;;;;;;;;5062621;28;20664;-71
2024/03/02 11:44:21;;;;;;;2.47;1.00;;;;;;;;;;5066275;28;20559;-71
2024/03/02 11:47:01;;;;;;;4.30;1.35;;;;;;;;;;5055687;28;20272;-71
2024/03/02 11:49:42;;;;;;;3.13;1.00;;;;;;;;;;5061641;28;20184;-71
2024/03/02 11:52:12;;;;;;;2.95;1.00;;;;;;;;;;5059463;28;20276;-71
2024/03/02 11:54:41;;;;;;;2.83;1.63;;;;;;;;;;5065252;28;20217;-72
2024/03/02 11:57:08;;;;;;;3.17;1.65;;;;;;;;;;5067140;28;20213;-73
2024/03/02 11:59:33;;;;;;;3.70;1.67;;;;;;;;;;5062147;28;20259;-70
2024/03/02 12:02:00;;;;;;;3.00;1.17;;;;;;;;;;5071567;28;20899;-73
2024/03/02 12:04:26;;;;;;;2.15;1.33;;;;;;;;;;5058721;28;20267;-70
2024/03/02 12:07:10;;;;;;;1.35;0.80;;;;;;;;;;5065788;28;20503;-70
2024/03/02 12:09:36;;;;;;;1.25;1.13;;;;;;;;;;5066876;28;20188;-72
2024/03/02 12:12:06;;;;;;;2.65;1.13;;;;;;;;;;5068969;28;20216;-71
2024/03/02 12:14:32;;;;;;;2.22;1.17;;;;;;;;;;5073068;28;20253;-72
2024/03/02 12:17:01;;;;;;;4.32;1.20;;;;;;;;;;5060760;28;20580;-71
2024/03/02 12:19:27;;;;;;;1.27;0.80;;;;;;;;;;5062357;28;20287;-71
2024/03/02 12:21:57;;;;;;;1.73;1.20;;;;;;;;;;5067908;28;20203;-71
2024/03/02 12:24:24;;;;;;;2.70;1.20;;;;;;;;;;5057900;28;20272;-71
2024/03/02 12:26:50;;;;;;;3.72;1.85;;;;;;;;;;5058783;28;20185;-71
2024/03/02 12:29:16;;;;;;;3.08;1.45;;;;;;;;;;5065293;28;20203;-72
2024/03/02 12:31:47;;;;;;;3.42;1.90;;;;;;;;;;5065342;28;20185;-72
2024/03/02 12:34:15;;;;;;;3.55;1.77;;;;;;;;;;5054507;28;20340;-72
2024/03/02 12:36:41;;;;;;;3.15;1.90;;;;;;;;;;5055420;28;20672;-71
2024/03/02 12:39:08;;;;;;;6.35;2.40;;;;;;;;;;5059586;28;20209;-71
2024/03/02 12:41:37;;;;;;;4.18;2.20;;;;;;;;;;5055020;28;20195;-73
2024/03/02 12:44:03;;;;;;;3.47;2.22;;;;;;;;;;5051803;28;20242;-71
2024/03/02 12:46:28;;;;;;;3.40;1.80;;;;;;;;;;5046494;28;20197;-72
2024/03/02 12:48:54;;;;;;;4.10;1.98;;;;;;;;;;5046479;28;20209;-72
2024/03/02 12:51:19;;;;;;;3.33;1.77;;;;;;;;;;5058272;28;20620;-72
2024/03/02 12:53:45;;;;;;;4.63;2.03;;;;;;;;;;5048963;28;20194;-72
2024/03/02 12:56:10;;;;;;;2.97;1.73;;;;;;;;;;5046754;28;20240;-72
2024/03/02 12:58:41;;;;;;;3.70;2.28;;;;;;;;;;5047349;28;20668;-71
2024/03/02 13:01:08;;;;;;;2.50;1.45;;;;;;;;;;5047970;28;20664;-72
2024/03/02 13:03:40;;;;;;;2.90;1.55;;;;;;;;;;5051961;28;20236;-72
2024/03/02 13:06:06;;;;;;;5.10;1.90;;;;;;;;;;5047014;28;20525;-71
2024/03/02 13:08:33;;;;;;;1.85;1.38;;;;;;;;;;5045891;28;20246;-71
2024/03/02 13:10:58;;;;;;;1.80;1.30;;;;;;;;;;5045759;28;20668;-71
2024/03/02 13:13:24;;;;;;;2.58;1.23;;;;;;;;;;5045126;28;20192;-71
2024/03/02 13:15:49;;;;;;;3.60;1.20;;;;;;;;;;5075571;28;20726;-72
2024/03/02 13:18:17;;;;;;;3.50;1.45;;;;;;;;;;5046889;28;20247;-71
2024/03/02 13:20:43;;;;;;;3.45;1.52;;;;;;;;;;5046951;28;20476;-71
2024/03/02 13:23:10;;;;;;;1.38;1.10;;;;;;;;;;5056985;28;20188;-71
2024/03/02 13:25:35;;;;;;;4.72;1.77;;;;;;;;;;5049737;28;20219;-73
2024/03/02 13:28:02;;;;;;;2.60;1.10;;;;;;;;;;5043564;28;20524;-73
2024/03/02 13:30:27;;;;;;;3.08;1.35;;;;;;;;;;5046275;28;20308;-73
2024/03/02 13:32:53;;;;;;;2.25;0.85;;;;;;;;;;5045625;28;20649;-72
2024/03/02 13:35:19;;;;;;;5.68;1.25;;;;;;;;;;5042039;28;20327;-71
2024/03/02 13:37:44;;;;;;;3.20;1.10;;;;;;;;;;5042302;28;20365;-72
2024/03/02 13:40:13;;;;;;;2.90;1.13;;;;;;;;;;5056977;28;20188;-72
2024/03/02 13:42:40;;;;;;;3.88;1.25;;;;;;;;;;5059642;28;20309;-72
2024/03/02 13:45:06;;;;;;;4.05;1.40;;;;;;;;;;5060963;28;20188;-72
2024/03/02 13:47:32;;;;;;;2.92;1.30;;;;;;;;;;5060135;28;20271;-72
2024/03/02 13:49:57;;;;;;;2.47;0.90;;;;;;;;;;5060477;28;20192;-72
2024/03/02 13:52:25;;;;;;;1.70;1.10;;;;;;;;;;5061053;28;20203;-72
2024/03/02 13:54:52;;;;;;;2.10;0.95;;;;;;;;;;5059655;28;20267;-71
2024/03/02 13:57:19;;;;;;;2.03;1.17;;;;;;;;;;5077569;28;20191;-73
2024/03/02 13:59:45;;;;;;;2.30;0.90;;;;;;;;;;5062075;28;20551;-72
2024/03/02 14:02:12;;;;;;;7.10;1.00;;;;;;;;;;5056791;28;20190;-72
2024/03/02 14:04:38;;;;;;;3.50;1.35;;;;;;;;;;5064332;28;20200;-73
2024/03/02 14:07:10;;;;;;;3.33;1.00;;;;;;;;;;5063609;28;20242;-73
2024/03/02 14:09:36;;;;;;;2.40;1.27;;;;;;;;;;5060829;28;20220;-73
2024/03/02 14:12:02;;;;;;;1.60;1.08;;;;;;;;;;5059180;28;20325;-73
2024/03/02 14:14:28;;;;;;;2.50;1.00;;;;;;;;;;5065777;28;20206;-72
2024/03/02 14:16:55;;;;;;;1.35;0.80;;;;;;;;;;5063019;28;20700;-73
2024/03/02 14:19:21;;;;;;;2.45;0.88;;;;;;;;;;5047957;28;20698;-73
2024/03/02 14:21:47;;;;;;;2.85;0.88;;;;;;;;;;5062195;28;20189;-73
2024/03/02 14:24:13;;;;;;;2.92;1.10;;;;;;;;;;5065751;28;20585;-73
2024/03/02 14:26:39;;;;;;;3.83;1.40;;;;;;;;;;5058711;28;20246;-73
2024/03/02 14:29:05;;;;;;;3.70;1.10;;;;;;;;;;5050449;28;20549;-72
2024/03/02 14:31:33;;;;;;;1.45;0.75;;;;;;;;;;5049049;28;20213;-72
2024/03/02 14:33:59;;;;;;;1.67;0.88;;;;;;;;;;5048832;28;20921;-73
2024/03/02 14:36:27;;;;;;;5.10;0.90;;;;;;;;;;5063311;28;20180;-73
2024/03/02 14:38:53;;;;;;;2.90;1.20;;;;;;;;;;5066441;28;20325;-73
2024/03/02 14:41:18;;;;;;;2.72;1.20;;;;;;;;;;5061363;28;20193;-73
2024/03/02 14:43:43;;;;;;;4.50;0.90;;;;;;;;;;5052870;28;20633;-73
2024/03/02 14:46:09;;;;;;;1.65;0.90;;;;;;;;;;5067946;28;20185;-72